Time;durP1;ratioP1;P1;durP2;ratioP2;P2;SDS_P1;SDS_P2;PMS_P1;PMS_P2;Temp;Humidity;BMP_temperature;BMP_pressure;BME280_temperature;BME280_humidity;BME280_pressure;Samples;Min_cycle;Max_cycle;Signal;HPM_P1;HPM_P2
2021/05/21 00:01:36;;;;;;;1.10;0.70;;;14.00;99.90;;;;;;5047112;28;20265;-50
2021/05/21 00:04:03;;;;;;;2.40;1.27;;;14.00;99.90;;;;;;5046605;28;20209;-49
2021/05/21 00:06:31;;;;;;;2.10;0.73;;;14.00;99.90;;;;;;5050388;28;20630;-49
2021/05/21 00:08:58;;;;;;;1.13;0.97;;;14.00;99.90;;;;;;5047730;28;20657;-48
2021/05/21 00:11:25;;;;;;;1.13;0.83;;;13.90;99.90;;;;;;5048426;28;20208;-48
2021/05/21 00:13:52;;;;;;;1.40;0.73;;;14.00;99.90;;;;;;5047570;28;20270;-49
2021/05/21 00:16:19;;;;;;;2.67;1.00;;;14.00;99.90;;;;;;5050015;28;20203;-47
2021/05/21 00:18:47;;;;;;;4.37;1.13;;;14.00;99.90;;;;;;5048840;28;20208;-49
2021/05/21 00:21:14;;;;;;;1.33;0.80;;;14.00;99.90;;;;;;5050609;28;20276;-48
2021/05/21 00:23:41;;;;;;;1.10;0.97;;;14.00;99.90;;;;;;5047291;28;20627;-49
2021/05/21 00:26:08;;;;;;;1.57;0.77;;;14.00;99.90;;;;;;5048784;28;20255;-48
2021/05/21 00:28:35;;;;;;;1.43;0.97;;;13.90;99.90;;;;;;5049153;28;20253;-49
2021/05/21 00:31:02;;;;;;;0.90;0.70;;;14.00;99.90;;;;;;5046898;28;20283;-49
2021/05/21 00:33:29;;;;;;;2.07;1.20;;;14.00;99.90;;;;;;5034785;28;20654;-49
2021/05/21 00:35:56;;;;;;;0.70;0.70;;;13.90;99.90;;;;;;5048910;28;20491;-50
2021/05/21 00:38:22;;;;;;;4.80;0.97;;;13.90;99.90;;;;;;5047703;28;20267;-49
2021/05/21 00:40:49;;;;;;;1.30;0.77;;;14.00;99.90;;;;;;5051305;28;20262;-49
2021/05/21 00:43:16;;;;;;;1.60;0.80;;;14.00;99.90;;;;;;5048444;28;20196;-49
2021/05/21 00:45:43;;;;;;;4.17;0.67;;;13.90;99.90;;;;;;5048202;28;20309;-49
2021/05/21 00:48:10;;;;;;;4.50;1.07;;;14.00;99.90;;;;;;5047214;28;20251;-49
2021/05/21 00:50:37;;;;;;;2.63;0.80;;;14.00;99.90;;;;;;5047063;28;20674;-49
2021/05/21 00:53:05;;;;;;;1.87;0.60;;;14.00;99.90;;;;;;5044073;28;20505;-49
2021/05/21 00:55:32;;;;;;;1.90;1.00;;;14.00;99.90;;;;;;5047665;28;20370;-49
2021/05/21 00:58:01;;;;;;;0.73;0.60;;;13.90;99.90;;;;;;5049122;28;20288;-49
2021/05/21 01:00:28;;;;;;;2.73;0.67;;;13.90;99.90;;;;;;5047029;28;20251;-49
2021/05/21 01:02:55;;;;;;;3.13;0.80;;;13.90;99.90;;;;;;5047892;28;20560;-49
2021/05/21 01:05:22;;;;;;;0.70;0.70;;;13.90;99.90;;;;;;5047640;28;20211;-48
2021/05/21 01:07:49;;;;;;;1.70;0.80;;;13.80;99.90;;;;;;5046845;28;20210;-48
2021/05/21 01:10:16;;;;;;;1.53;1.00;;;13.90;99.90;;;;;;5047126;28;20382;-48
2021/05/21 01:12:43;;;;;;;2.43;0.97;;;13.80;99.90;;;;;;5046980;28;20226;-49
2021/05/21 01:15:11;;;;;;;0.97;0.70;;;13.80;99.90;;;;;;5045784;28;20281;-49
2021/05/21 01:17:38;;;;;;;3.07;0.93;;;13.80;99.90;;;;;;5047952;28;20205;-48
2021/05/21 01:20:08;;;;;;;4.43;0.93;;;13.80;99.90;;;;;;5046359;28;20281;-48
2021/05/21 01:22:35;;;;;;;2.43;0.97;;;13.90;99.90;;;;;;5045423;28;20223;-50
2021/05/21 01:25:04;;;;;;;3.13;0.80;;;13.80;99.90;;;;;;5047712;28;20213;-49
2021/05/21 01:27:32;;;;;;;1.03;0.70;;;13.80;99.90;;;;;;5047508;28;20798;-49
2021/05/21 01:29:59;;;;;;;1.63;0.70;;;13.80;99.90;;;;;;5049287;28;20238;-49
2021/05/21 01:32:26;;;;;;;3.77;0.83;;;13.70;99.90;;;;;;5048041;28;21230;-48
2021/05/21 01:34:54;;;;;;;3.97;1.00;;;13.80;99.90;;;;;;5045385;28;20213;-48
2021/05/21 01:37:22;;;;;;;1.70;0.70;;;13.80;99.90;;;;;;5051306;28;20666;-50
2021/05/21 01:39:51;;;;;;;2.83;1.07;;;13.90;99.90;;;;;;5051752;28;20286;-49
2021/05/21 01:42:18;;;;;;;2.73;1.30;;;14.00;99.90;;;;;;5050004;28;20213;-49
2021/05/21 01:44:45;;;;;;;6.57;2.13;;;14.00;99.90;;;;;;5050805;28;20210;-48
2021/05/21 01:47:13;;;;;;;6.20;1.60;;;13.90;99.90;;;;;;5050755;28;20225;-49
2021/05/21 01:49:40;;;;;;;9.70;2.73;;;13.80;99.90;;;;;;5052850;28;20198;-50
2021/05/21 01:52:08;;;;;;;8.33;1.70;;;13.50;99.90;;;;;;5048760;28;20280;-49
2021/05/21 01:54:36;;;;;;;7.90;2.10;;;13.30;99.90;;;;;;5050823;28;20225;-50
2021/05/21 01:57:04;;;;;;;12.13;2.43;;;13.10;99.90;;;;;;5054539;28;20209;-48
2021/05/21 01:59:31;;;;;;;6.10;1.90;;;13.10;99.90;;;;;;5049916;28;20691;-50
2021/05/21 02:01:58;;;;;;;8.07;2.40;;;13.10;99.90;;;;;;5049886;28;20587;-50
2021/05/21 02:04:34;;;;;;;6.33;1.93;;;12.90;99.90;;;;;;5055596;28;20810;-49
2021/05/21 02:07:02;;;;;;;7.87;1.77;;;12.70;99.90;;;;;;5054570;28;20220;-49
2021/05/21 02:09:35;;;;;;;8.97;2.10;;;12.30;99.90;;;;;;5052259;28;20309;-49
2021/05/21 02:12:05;;;;;;;10.97;2.30;;;12.30;99.90;;;;;;5051878;28;20309;-49
2021/05/21 02:14:32;;;;;;;5.93;1.93;;;12.50;99.90;;;;;;5051264;28;20262;-49
2021/05/21 02:16:59;;;;;;;15.17;2.13;;;12.20;99.90;;;;;;5053509;28;20263;-50
2021/05/21 02:19:26;;;;;;;7.93;2.70;;;12.10;99.90;;;;;;5052051;28;20307;-49
2021/05/21 02:21:52;;;;;;;7.87;1.53;;;12.10;99.90;;;;;;5047636;28;20233;-50
2021/05/21 02:24:19;;;;;;;10.20;1.77;;;12.10;99.90;;;;;;5048589;28;20213;-49
2021/05/21 02:26:46;;;;;;;12.23;2.23;;;12.10;99.90;;;;;;5052286;28;20255;-50
2021/05/21 02:29:13;;;;;;;12.27;2.70;;;12.00;99.90;;;;;;5050685;28;20286;-49
2021/05/21 02:31:40;;;;;;;11.20;2.37;;;12.00;99.90;;;;;;5053443;28;20223;-49
2021/05/21 02:34:06;;;;;;;6.17;1.53;;;11.90;99.90;;;;;;5049269;28;20274;-49
2021/05/21 02:36:33;;;;;;;8.97;1.60;;;11.80;99.90;;;;;;5038981;28;20211;-49
2021/05/21 02:39:01;;;;;;;8.53;1.83;;;11.70;99.90;;;;;;5046501;28;20207;-48
2021/05/21 02:41:27;;;;;;;9.33;2.17;;;11.60;99.90;;;;;;5052677;28;20247;-48
2021/05/21 02:43:54;;;;;;;6.53;1.73;;;11.60;99.90;;;;;;5050289;28;20200;-50
2021/05/21 02:46:21;;;;;;;9.70;2.07;;;11.80;99.90;;;;;;5051536;28;20227;-49
2021/05/21 02:48:48;;;;;;;12.90;1.50;;;11.60;99.90;;;;;;5051072;28;20227;-48
2021/05/21 02:51:15;;;;;;;4.80;1.47;;;11.50;99.90;;;;;;5053108;28;20193;-48
2021/05/21 02:53:41;;;;;;;8.80;1.50;;;11.40;99.90;;;;;;5047388;28;20606;-47
2021/05/21 02:56:08;;;;;;;9.87;1.83;;;11.40;99.90;;;;;;5048295;28;20266;-49
2021/05/21 02:58:35;;;;;;;8.23;2.43;;;11.20;99.90;;;;;;5052046;28;20211;-48
2021/05/21 03:01:02;;;;;;;9.13;2.03;;;11.20;99.90;;;;;;5048752;28;20229;-48
2021/05/21 03:03:29;;;;;;;7.63;1.90;;;11.10;99.90;;;;;;5048030;28;20651;-49
2021/05/21 03:05:56;;;;;;;14.70;3.20;;;11.20;99.90;;;;;;5046648;28;20322;-49
2021/05/21 03:08:23;;;;;;;12.40;1.80;;;11.30;99.90;;;;;;5048070;28;20198;-48
2021/05/21 03:10:50;;;;;;;6.20;1.47;;;11.20;99.90;;;;;;5050194;28;20337;-48
2021/05/21 03:13:17;;;;;;;4.07;1.33;;;11.30;99.90;;;;;;5049965;28;20202;-47
2021/05/21 03:15:46;;;;;;;5.73;1.40;;;11.30;99.90;;;;;;5053934;28;20202;-49
2021/05/21 03:18:23;;;;;;;6.33;1.70;;;11.20;99.90;;;;;;5045792;28;20762;-49
2021/05/21 03:20:51;;;;;;;5.60;1.23;;;11.20;99.90;;;;;;5053097;28;20251;-48
2021/05/21 03:23:19;;;;;;;12.77;1.80;;;11.20;99.90;;;;;;5045808;28;20282;-48
2021/05/21 03:25:46;;;;;;;4.93;1.47;;;11.20;99.90;;;;;;5051045;28;20299;-48
2021/05/21 03:28:17;;;;;;;8.67;1.53;;;11.30;99.90;;;;;;5050885;28;20230;-49
2021/05/21 03:30:44;;;;;;;10.03;2.23;;;11.20;99.90;;;;;;5049521;28;20346;-49
2021/05/21 03:33:11;;;;;;;10.27;1.50;;;11.30;99.90;;;;;;5048207;28;20276;-49
2021/05/21 03:35:38;;;;;;;6.70;2.00;;;11.30;99.90;;;;;;5048337;28;20208;-49
2021/05/21 03:38:06;;;;;;;8.20;1.30;;;11.30;99.90;;;;;;5049549;28;20589;-49
2021/05/21 03:40:35;;;;;;;5.43;1.40;;;11.40;99.90;;;;;;5051245;28;20287;-49
2021/05/21 03:43:03;;;;;;;6.07;1.80;;;11.40;99.90;;;;;;5051063;28;20536;-50
2021/05/21 03:45:31;;;;;;;10.80;2.03;;;11.50;99.90;;;;;;5048790;28;20234;-49
2021/05/21 03:47:59;;;;;;;6.63;1.43;;;11.40;99.90;;;;;;5046756;28;20321;-49
2021/05/21 03:50:25;;;;;;;8.23;2.00;;;11.40;99.90;;;;;;5051540;28;20279;-50
2021/05/21 03:52:52;;;;;;;3.90;1.07;;;11.40;99.90;;;;;;5045498;28;20233;-49
2021/05/21 03:55:20;;;;;;;7.30;1.53;;;11.40;99.90;;;;;;5048388;28;20202;-50
2021/05/21 03:57:47;;;;;;;4.37;1.40;;;11.30;99.90;;;;;;5048319;28;20253;-49
2021/05/21 04:00:16;;;;;;;8.70;2.20;;;11.30;99.90;;;;;;5048944;28;20236;-49
2021/05/21 04:02:44;;;;;;;7.60;1.80;;;11.30;99.90;;;;;;5051450;28;20202;-50
2021/05/21 04:05:12;;;;;;;6.83;1.77;;;11.20;99.90;;;;;;5050165;28;20658;-49
2021/05/21 04:07:39;;;;;;;6.20;1.60;;;11.30;99.90;;;;;;5049049;28;20295;-50
2021/05/21 04:10:06;;;;;;;5.63;1.97;;;11.30;99.90;;;;;;5047386;28;20233;-50
2021/05/21 04:12:33;;;;;;;9.40;2.20;;;11.20;99.90;;;;;;5048606;28;20229;-50
2021/05/21 04:15:00;;;;;;;9.57;2.00;;;11.10;99.90;;;;;;5049004;28;20208;-49
2021/05/21 04:17:27;;;;;;;6.27;1.90;;;11.20;99.90;;;;;;5047709;28;20679;-49
2021/05/21 04:19:54;;;;;;;7.17;1.97;;;11.30;99.90;;;;;;5050395;28;20218;-49
2021/05/21 04:22:20;;;;;;;7.53;2.13;;;11.30;99.90;;;;;;5047222;28;20214;-48
2021/05/21 04:24:48;;;;;;;6.17;1.80;;;11.30;99.90;;;;;;5047309;28;20218;-49
2021/05/21 04:27:15;;;;;;;7.87;1.90;;;11.40;99.90;;;;;;5050185;28;20761;-49
2021/05/21 04:29:41;;;;;;;8.80;2.10;;;11.40;99.90;;;;;;5047705;28;20252;-50
2021/05/21 04:32:08;;;;;;;6.37;1.90;;;11.40;99.90;;;;;;5047776;28;20634;-49
2021/05/21 04:34:35;;;;;;;10.33;2.30;;;11.40;99.90;;;;;;5051102;28;20744;-49
2021/05/21 04:37:02;;;;;;;8.93;2.07;;;11.40;99.90;;;;;;5049621;28;20639;-49
2021/05/21 04:39:29;;;;;;;7.23;2.53;;;11.40;99.90;;;;;;5045422;28;20233;-49
2021/05/21 04:41:56;;;;;;;6.90;1.73;;;11.40;99.90;;;;;;5048679;28;20619;-49
2021/05/21 04:44:23;;;;;;;9.73;2.63;;;11.40;99.90;;;;;;5047929;28;20246;-50
2021/05/21 04:46:49;;;;;;;6.80;2.00;;;11.30;99.90;;;;;;5045657;28;20303;-50
2021/05/21 04:49:39;;;;;;;9.33;2.27;;;11.30;99.90;;;;;;5051733;28;20195;-49
2021/05/21 04:52:08;;;;;;;7.23;1.90;;;11.40;99.90;;;;;;5048630;28;20319;-50
2021/05/21 04:54:37;;;;;;;5.97;1.97;;;11.50;99.90;;;;;;5045357;28;20209;-50
2021/05/21 04:57:04;;;;;;;9.77;2.20;;;11.60;99.90;;;;;;5046840;28;20738;-49
2021/05/21 04:59:31;;;;;;;5.30;1.67;;;11.70;99.90;;;;;;5048963;28;20600;-50
2021/05/21 05:01:58;;;;;;;5.20;1.90;;;11.60;99.90;;;;;;5045661;28;20316;-49
2021/05/21 05:04:25;;;;;;;7.47;2.13;;;11.70;99.90;;;;;;5049157;28;20316;-50
2021/05/21 05:06:52;;;;;;;9.77;2.40;;;11.60;99.90;;;;;;5050456;28;20592;-49
2021/05/21 05:09:19;;;;;;;9.27;2.20;;;11.60;99.90;;;;;;5047743;28;20350;-49
2021/05/21 05:11:46;;;;;;;6.10;1.50;;;11.70;99.90;;;;;;5050364;28;20649;-49
2021/05/21 05:14:13;;;;;;;8.47;1.93;;;11.80;99.90;;;;;;5046583;28;20202;-49
2021/05/21 05:16:40;;;;;;;8.57;2.13;;;11.80;99.90;;;;;;5050061;28;20240;-48
2021/05/21 05:19:08;;;;;;;5.00;1.30;;;11.90;99.90;;;;;;5049341;28;20209;-48
2021/05/21 05:21:42;;;;;;;7.17;1.60;;;12.00;99.90;;;;;;5051702;28;20239;-49
2021/05/21 05:24:18;;;;;;;10.57;1.60;;;12.10;99.90;;;;;;5043883;28;20375;-48
2021/05/21 05:26:47;;;;;;;5.67;1.47;;;12.10;99.90;;;;;;5052467;28;20324;-48
2021/05/21 05:29:14;;;;;;;11.47;1.97;;;12.20;99.90;;;;;;5049935;28;20294;-49
2021/05/21 05:31:46;;;;;;;8.60;1.53;;;12.20;99.90;;;;;;5047322;28;20196;-48
2021/05/21 05:34:14;;;;;;;7.70;1.60;;;12.20;99.90;;;;;;5045071;28;20236;-49
2021/05/21 05:36:41;;;;;;;6.23;1.30;;;12.20;99.90;;;;;;5046007;28;20204;-49
2021/05/21 05:39:09;;;;;;;8.77;1.60;;;12.30;99.90;;;;;;5047022;28;21088;-48
2021/05/21 05:41:36;;;;;;;10.50;1.80;;;12.30;99.90;;;;;;5049620;28;20244;-49
2021/05/21 05:44:03;;;;;;;10.07;1.50;;;12.30;99.90;;;;;;5046725;28;20349;-51
2021/05/21 05:46:30;;;;;;;8.37;1.83;;;12.40;99.90;;;;;;5049997;28;20233;-50
2021/05/21 05:48:57;;;;;;;8.43;2.03;;;12.40;99.90;;;;;;5048126;28;20981;-49
2021/05/21 05:51:24;;;;;;;14.73;1.70;;;12.50;99.90;;;;;;5047772;28;20704;-50
2021/05/21 05:53:51;;;;;;;6.80;1.97;;;12.50;99.90;;;;;;5043640;28;20203;-49
2021/05/21 05:56:17;;;;;;;2.97;1.33;;;12.50;99.90;;;;;;5050538;28;20705;-49
2021/05/21 05:58:44;;;;;;;9.33;1.33;;;12.60;99.90;;;;;;5049378;28;20718;-50
2021/05/21 06:01:11;;;;;;;6.20;1.40;;;12.70;99.90;;;;;;5044092;28;20613;-50
2021/05/21 06:03:38;;;;;;;7.67;1.90;;;12.70;99.90;;;;;;5044825;28;20604;-50
2021/05/21 06:06:05;;;;;;;8.93;2.07;;;12.70;99.90;;;;;;5049789;28;20346;-49
2021/05/21 06:08:51;;;;;;;11.70;1.87;;;12.60;99.90;;;;;;5046213;28;20238;-49
2021/05/21 06:11:19;;;;;;;10.87;2.13;;;12.50;99.90;;;;;;5047290;28;20328;-50
2021/05/21 06:13:46;;;;;;;8.67;1.87;;;12.50;99.90;;;;;;5048405;28;20345;-50
2021/05/21 06:16:13;;;;;;;9.47;2.10;;;12.60;99.90;;;;;;5046363;28;20264;-49
2021/05/21 06:18:40;;;;;;;9.77;1.83;;;12.70;99.90;;;;;;5047672;28;20213;-50
2021/05/21 06:21:09;;;;;;;9.00;1.87;;;12.80;99.90;;;;;;5051627;28;20230;-50
2021/05/21 06:23:38;;;;;;;6.27;1.60;;;12.90;99.90;;;;;;5046491;28;20851;-49
2021/05/21 06:28:40;;;;;;;11.67;2.07;;;13.10;99.90;;;;;;5051878;28;20272;-50
2021/05/21 06:31:08;;;;;;;6.23;1.73;;;13.20;99.90;;;;;;5048835;28;20202;-49
2021/05/21 06:33:35;;;;;;;8.67;1.87;;;13.30;99.90;;;;;;5051094;28;20284;-49
2021/05/21 06:36:02;;;;;;;7.60;1.47;;;13.40;99.90;;;;;;5052597;28;20239;-49
2021/05/21 06:38:29;;;;;;;8.47;1.93;;;13.30;99.90;;;;;;5051656;28;20683;-49
2021/05/21 06:40:56;;;;;;;8.33;2.37;;;13.20;99.90;;;;;;5051575;28;20294;-49
2021/05/21 06:43:23;;;;;;;6.20;1.20;;;13.20;99.90;;;;;;5050876;28;20260;-49
2021/05/21 06:45:50;;;;;;;10.07;2.10;;;13.10;99.90;;;;;;5054192;28;20267;-49
2021/05/21 06:48:16;;;;;;;11.27;2.20;;;13.20;99.90;;;;;;5051210;28;20259;-49
2021/05/21 06:50:43;;;;;;;7.73;1.83;;;13.50;99.90;;;;;;5052048;28;20197;-50
2021/05/21 06:53:10;;;;;;;7.53;1.63;;;13.70;99.90;;;;;;5044967;28;20212;-49
2021/05/21 06:55:39;;;;;;;8.87;1.40;;;13.80;99.90;;;;;;5050660;28;20307;-50
2021/05/21 06:58:06;;;;;;;11.83;1.70;;;13.90;99.90;;;;;;5050679;28;20231;-50
2021/05/21 07:00:41;;;;;;;12.60;1.90;;;14.00;99.90;;;;;;5049011;28;20344;-49
2021/05/21 07:03:08;;;;;;;12.07;1.73;;;14.30;99.90;;;;;;5050338;28;20355;-50
2021/05/21 07:05:35;;;;;;;5.67;2.07;;;14.40;99.90;;;;;;5050722;28;20272;-50
2021/05/21 07:08:03;;;;;;;5.53;1.20;;;14.40;99.90;;;;;;5036511;28;21350;-49
2021/05/21 07:10:29;;;;;;;4.43;1.67;;;14.70;99.90;;;;;;5050440;28;20230;-49
2021/05/21 07:13:06;;;;;;;5.57;1.73;;;14.80;99.90;;;;;;5047168;28;20636;-49
2021/05/21 07:15:33;;;;;;;7.53;1.60;;;14.40;99.90;;;;;;5049105;28;20205;-49
2021/05/21 07:18:00;;;;;;;6.43;1.57;;;14.00;99.90;;;;;;5046611;28;20212;-49
2021/05/21 07:20:26;;;;;;;6.00;1.90;;;13.60;99.90;;;;;;5049626;28;20585;-49
2021/05/21 07:22:53;;;;;;;1.70;1.23;;;13.20;99.90;;;;;;5047624;28;20297;-48
2021/05/21 07:25:20;;;;;;;5.07;1.57;;;12.50;99.90;;;;;;5048101;28;20291;-48
2021/05/21 07:27:47;;;;;;;3.87;1.77;;;12.30;99.90;;;;;;5050163;28;20319;-48
2021/05/21 07:30:15;;;;;;;5.03;1.40;;;12.00;99.90;;;;;;5048963;28;20227;-47
2021/05/21 07:32:42;;;;;;;4.87;1.70;;;11.70;99.90;;;;;;5036512;28;20202;-49
2021/05/21 07:35:09;;;;;;;4.10;1.40;;;11.70;99.90;;;;;;5046866;28;20268;-49
2021/05/21 07:37:36;;;;;;;4.53;1.40;;;11.90;99.90;;;;;;5049430;28;20699;-49
2021/05/21 07:40:06;;;;;;;5.53;1.60;;;11.90;99.90;;;;;;5047494;28;20270;-49
2021/05/21 07:42:37;;;;;;;5.00;1.50;;;11.70;99.90;;;;;;5048074;28;20265;-49
2021/05/21 07:45:08;;;;;;;7.03;1.80;;;12.10;99.90;;;;;;5052898;28;20236;-50
2021/05/21 07:47:35;;;;;;;8.07;2.13;;;12.50;99.90;;;;;;5055692;28;20272;-49
2021/05/21 07:50:05;;;;;;;4.43;1.93;;;13.00;99.90;;;;;;5051058;28;20653;-48
2021/05/21 07:52:32;;;;;;;5.70;1.63;;;12.80;99.90;;;;;;5049684;28;20242;-49
2021/05/21 07:55:03;;;;;;;3.63;1.67;;;13.30;99.90;;;;;;5052409;28;20276;-47
2021/05/21 07:57:30;;;;;;;8.63;1.97;;;13.50;99.90;;;;;;5050149;28;20295;-50
2021/05/21 07:59:57;;;;;;;3.70;1.80;;;13.50;99.90;;;;;;5048947;28;20248;-48
2021/05/21 08:02:24;;;;;;;6.30;1.80;;;13.70;99.90;;;;;;5042567;28;20682;-50
2021/05/21 08:04:51;;;;;;;7.17;1.73;;;13.80;99.90;;;;;;5052082;28;20205;-49
2021/05/21 08:07:18;;;;;;;8.67;2.20;;;13.60;99.90;;;;;;5049103;28;20287;-49
2021/05/21 08:09:48;;;;;;;11.77;2.07;;;13.60;99.90;;;;;;5049012;28;20232;-49
2021/05/21 08:12:16;;;;;;;8.67;1.87;;;13.80;99.90;;;;;;5040383;28;20585;-50
2021/05/21 08:14:44;;;;;;;11.73;2.10;;;13.90;99.90;;;;;;5041590;28;20669;-49
2021/05/21 08:17:11;;;;;;;10.77;2.03;;;14.30;99.90;;;;;;5043321;28;20196;-49
2021/05/21 08:19:43;;;;;;;7.83;1.57;;;14.50;99.90;;;;;;5048697;28;20202;-50
2021/05/21 08:22:10;;;;;;;7.10;2.00;;;14.30;99.90;;;;;;5041210;28;20259;-49
2021/05/21 08:24:37;;;;;;;10.33;1.60;;;14.40;99.90;;;;;;5041534;28;20242;-50
2021/05/21 08:27:04;;;;;;;9.47;1.50;;;14.30;99.90;;;;;;5047175;28;20326;-50
2021/05/21 08:29:33;;;;;;;5.87;1.23;;;14.00;99.90;;;;;;5045800;28;20251;-49
2021/05/21 08:32:01;;;;;;;6.47;1.53;;;14.00;99.90;;;;;;5046142;28;20206;-49
2021/05/21 08:34:29;;;;;;;3.73;1.40;;;14.20;99.90;;;;;;5049447;28;20297;-49
2021/05/21 08:36:56;;;;;;;4.40;1.50;;;14.10;99.90;;;;;;5049219;28;20260;-49
2021/05/21 08:39:23;;;;;;;4.07;1.40;;;14.10;99.90;;;;;;5045514;28;20256;-49
2021/05/21 08:41:53;;;;;;;3.93;1.20;;;14.00;99.90;;;;;;5046287;28;20210;-50
2021/05/21 08:44:21;;;;;;;6.10;2.60;;;14.00;99.90;;;;;;5043244;28;20281;-49
2021/05/21 08:46:48;;;;;;;6.23;1.87;;;14.00;99.90;;;;;;5048467;28;20596;-49
2021/05/21 08:49:16;;;;;;;8.37;1.10;;;14.20;99.90;;;;;;5047036;28;20246;-49
2021/05/21 08:51:43;;;;;;;11.63;1.80;;;13.90;99.90;;;;;;5052948;28;20561;-49
2021/05/21 08:54:32;;;;;;;7.40;2.13;;;13.80;99.90;;;;;;5045457;28;20946;-49
2021/05/21 08:56:59;;;;;;;5.70;2.00;;;13.60;99.90;;;;;;5050610;28;20207;-49
2021/05/21 08:59:26;;;;;;;12.53;2.07;;;13.80;99.90;;;;;;5045807;28;20215;-50
2021/05/21 09:01:55;;;;;;;9.90;2.07;;;14.00;99.90;;;;;;5050450;28;20340;-50
2021/05/21 09:04:23;;;;;;;4.00;1.47;;;14.50;99.90;;;;;;5053794;28;20196;-49
2021/05/21 09:06:49;;;;;;;9.60;2.03;;;14.80;99.90;;;;;;5053823;28;20244;-49
2021/05/21 09:09:16;;;;;;;10.97;2.13;;;14.70;99.90;;;;;;5042125;28;20245;-49
2021/05/21 09:11:45;;;;;;;6.77;1.90;;;14.40;99.90;;;;;;5048722;28;20248;-50
2021/05/21 09:14:20;;;;;;;13.90;2.10;;;14.40;99.90;;;;;;5051136;28;20212;-49
2021/05/21 09:16:48;;;;;;;8.37;1.73;;;14.40;99.90;;;;;;5044680;28;20197;-48
2021/05/21 09:19:20;;;;;;;8.30;1.87;;;14.10;99.90;;;;;;5049051;28;20214;-48
2021/05/21 09:22:07;;;;;;;10.67;2.27;;;14.20;99.90;;;;;;5050043;28;20216;-48
2021/05/21 09:24:34;;;;;;;5.93;1.90;;;14.10;99.90;;;;;;5046183;28;20225;-49
2021/05/21 09:27:03;;;;;;;7.80;1.40;;;13.90;99.90;;;;;;5046078;28;20276;-49
2021/05/21 09:29:46;;;;;;;7.83;1.97;;;13.80;99.90;;;;;;5046710;28;20492;-48
2021/05/21 09:32:22;;;;;;;6.80;1.97;;;13.80;99.90;;;;;;5043094;28;20247;-49
2021/05/21 09:35:05;;;;;;;8.10;1.70;;;13.90;99.90;;;;;;5039745;28;20194;-49
2021/05/21 09:37:34;;;;;;;3.77;1.60;;;14.20;99.90;;;;;;5041536;28;20242;-50
2021/05/21 09:40:07;;;;;;;6.13;1.47;;;14.10;99.90;;;;;;5038745;28;20210;-51
2021/05/21 09:43:13;;;;;;;10.83;1.70;;;14.20;99.90;;;;;;5044533;28;20287;-50
2021/05/21 09:45:41;;;;;;;6.60;1.60;;;14.70;95.50;;;;;;4977011;28;20235;-49
2021/05/21 09:48:10;;;;;;;7.03;1.93;;;14.80;91.80;;;;;;4974994;28;20302;-49
2021/05/21 09:50:49;;;;;;;9.80;1.83;;;14.50;85.30;;;;;;4973605;28;20603;-50
2021/05/21 09:53:16;;;;;;;7.77;1.40;;;14.60;93.00;;;;;;4972256;28;20208;-50
2021/05/21 09:56:06;;;;;;;5.77;2.57;;;14.80;90.80;;;;;;4971991;28;20193;-49
2021/05/21 09:58:46;;;;;;;6.73;1.67;;;14.80;78.10;;;;;;4972689;28;20212;-50
2021/05/21 10:01:25;;;;;;;9.70;1.70;;;14.60;90.30;;;;;;4977569;28;20269;-49
2021/05/21 10:03:54;;;;;;;8.90;1.50;;;14.50;94.20;;;;;;4960567;28;21040;-50
2021/05/21 10:06:23;;;;;;;4.50;1.13;;;14.20;99.90;;;;;;4973002;28;20205;-50
2021/05/21 10:08:54;;;;;;;8.03;1.40;;;13.30;99.90;;;;;;4977005;28;20329;-50
2021/05/21 10:11:21;;;;;;;6.00;1.50;;;12.90;99.90;;;;;;4980948;28;20289;-50
2021/05/21 10:13:49;;;;;;;8.53;1.47;;;12.70;99.90;;;;;;4977820;28;20288;-50
2021/05/21 10:16:17;;;;;;;13.80;2.70;;;12.70;99.90;;;;;;5004268;28;20210;-50
2021/05/21 10:18:52;;;;;;;9.50;1.80;;;13.00;99.90;;;;;;5048030;28;21770;-49
2021/05/21 10:21:21;;;;;;;3.73;1.27;;;13.70;99.90;;;;;;5056765;28;20201;-50
2021/05/21 10:24:03;;;;;;;7.03;1.40;;;13.60;99.90;;;;;;5050617;28;20227;-50
2021/05/21 10:26:34;;;;;;;8.87;1.80;;;13.50;99.90;;;;;;5051276;28;20567;-50
2021/05/21 10:29:05;;;;;;;9.53;1.90;;;13.70;99.90;;;;;;5051651;28;20753;-50
2021/05/21 10:31:32;;;;;;;10.10;2.00;;;13.90;99.90;;;;;;5052172;28;20207;-51
2021/05/21 10:34:38;;;;;;;5.07;1.60;;;13.90;99.90;;;;;;5045834;28;20283;-51
2021/05/21 10:37:28;;;;;;;8.83;1.87;;;14.00;99.90;;;;;;5042006;28;20229;-50
2021/05/21 10:39:59;;;;;;;4.97;1.20;;;14.10;99.90;;;;;;5050550;28;20222;-50
2021/05/21 10:42:26;;;;;;;9.37;1.70;;;14.30;99.90;;;;;;5047917;28;20206;-50
2021/05/21 10:45:13;;;;;;;6.73;1.50;;;14.70;99.90;;;;;;5051618;28;20653;-49
2021/05/21 10:47:45;;;;;;;5.20;1.20;;;14.80;91.50;;;;;;5051433;28;20682;-49
2021/05/21 10:50:18;;;;;;;4.23;1.90;;;15.00;93.70;;;;;;5047769;28;20208;-50
2021/05/21 10:52:59;;;;;;;8.97;1.40;;;15.10;90.60;;;;;;5046242;28;20679;-50
2021/05/21 10:55:47;;;;;;;5.53;1.53;;;15.10;96.10;;;;;;5048021;28;20199;-51
2021/05/21 10:58:27;;;;;;;8.13;1.73;;;15.10;88.90;;;;;;5049360;28;20297;-51
2021/05/21 11:01:15;;;;;;;8.63;1.20;;;14.70;98.20;;;;;;5048255;28;20542;-50
2021/05/21 11:04:01;;;;;;;7.83;1.43;;;14.20;99.90;;;;;;5049686;28;20211;-50
2021/05/21 11:06:31;;;;;;;7.10;2.07;;;13.70;99.90;;;;;;5055699;28;20203;-50
2021/05/21 11:09:19;;;;;;;7.63;2.37;;;13.00;99.90;;;;;;5049130;28;20213;-50
2021/05/21 11:11:52;;;;;;;7.67;1.40;;;12.50;99.90;;;;;;5053297;28;20220;-50
2021/05/21 11:14:29;;;;;;;4.37;1.60;;;12.30;99.90;;;;;;5052212;28;20666;-50
2021/05/21 11:17:22;;;;;;;9.37;1.67;;;12.20;99.90;;;;;;5049265;28;20250;-50
2021/05/21 11:19:57;;;;;;;9.67;1.70;;;12.20;99.90;;;;;;5049053;28;20201;-50
2021/05/21 11:22:27;;;;;;;11.67;2.33;;;12.20;99.90;;;;;;5047876;28;20210;-50
2021/05/21 11:25:12;;;;;;;5.87;1.77;;;12.40;99.90;;;;;;5049497;28;20208;-50
2021/05/21 11:27:39;;;;;;;7.83;1.30;;;12.50;99.90;;;;;;5050682;28;20668;-51
2021/05/21 11:30:08;;;;;;;7.53;1.90;;;13.10;99.90;;;;;;5049159;28;20200;-50
2021/05/21 11:32:37;;;;;;;10.47;1.93;;;13.70;99.90;;;;;;5047069;28;20618;-50
2021/05/21 11:35:09;;;;;;;5.40;1.30;;;14.10;99.90;;;;;;5044294;28;20530;-50
2021/05/21 11:37:39;;;;;;;3.97;1.30;;;14.40;99.90;;;;;;5045873;28;20292;-51
2021/05/21 11:40:08;;;;;;;5.20;1.87;;;14.20;99.90;;;;;;5046642;28;20340;-50
2021/05/21 11:42:35;;;;;;;5.10;1.53;;;14.20;99.90;;;;;;5046943;28;20749;-50
2021/05/21 11:45:05;;;;;;;3.57;1.30;;;14.50;99.90;;;;;;5048087;28;20310;-50
2021/05/21 11:47:36;;;;;;;11.37;2.20;;;14.90;99.90;;;;;;5041564;28;20228;-51
2021/05/21 11:50:09;;;;;;;9.77;1.67;;;15.50;99.90;;;;;;5044722;28;20878;-50
2021/05/21 11:52:36;;;;;;;6.50;1.40;;;16.00;99.90;;;;;;5044785;28;20209;-52
2021/05/21 11:55:04;;;;;;;4.80;1.83;;;15.90;99.90;;;;;;5049755;28;20635;-50
2021/05/21 11:57:31;;;;;;;5.80;1.80;;;16.30;99.90;;;;;;5048064;28;20252;-49
2021/05/21 11:59:58;;;;;;;7.10;2.00;;;16.20;97.80;;;;;;5050667;28;20204;-50
2021/05/21 12:02:26;;;;;;;10.00;1.90;;;16.10;99.10;;;;;;5048204;28;20281;-50
2021/05/21 12:04:53;;;;;;;9.27;1.90;;;16.10;99.90;;;;;;5047096;28;20214;-50
2021/05/21 12:07:27;;;;;;;7.23;1.47;;;16.10;99.60;;;;;;5046264;28;20258;-50
2021/05/21 12:10:04;;;;;;;6.03;1.57;;;15.90;87.00;;;;;;5046798;28;20264;-51
2021/05/21 12:12:33;;;;;;;4.70;1.10;;;15.70;93.00;;;;;;5051129;28;20577;-50
2021/05/21 12:15:13;;;;;;;6.80;1.33;;;15.30;93.90;;;;;;5051197;28;20853;-50
2021/05/21 12:17:49;;;;;;;6.20;2.00;;;15.30;95.50;;;;;;5045863;28;20255;-50
2021/05/21 12:20:18;;;;;;;12.97;2.03;;;15.00;90.50;;;;;;5047153;28;20594;-51
2021/05/21 12:23:00;;;;;;;5.83;1.57;;;15.00;94.80;;;;;;5039821;28;20815;-51
2021/05/21 12:25:29;;;;;;;6.57;1.33;;;15.10;95.30;;;;;;5045600;28;20246;-50
2021/05/21 12:28:00;;;;;;;7.23;1.40;;;15.20;93.20;;;;;;5047338;28;20330;-50
2021/05/21 12:30:28;;;;;;;5.63;1.30;;;15.20;84.70;;;;;;5045529;28;20752;-50
2021/05/21 12:32:55;;;;;;;7.97;1.60;;;15.10;82.40;;;;;;5040706;28;20293;-50
2021/05/21 12:35:36;;;;;;;3.00;1.20;;;15.10;91.10;;;;;;5045522;28;20329;-50
2021/05/21 12:38:04;;;;;;;8.23;1.63;;;15.00;80.60;;;;;;5040592;28;20206;-50
2021/05/21 12:40:31;;;;;;;7.00;1.23;;;14.80;89.30;;;;;;5040052;28;20211;-50
2021/05/21 12:43:05;;;;;;;4.63;1.37;;;14.70;99.70;;;;;;5044288;28;20242;-50
2021/05/21 12:45:35;;;;;;;7.00;1.30;;;14.50;99.90;;;;;;5043603;28;20721;-49
2021/05/21 12:48:02;;;;;;;8.73;2.03;;;14.40;99.90;;;;;;5046974;28;20548;-50
2021/05/21 12:50:33;;;;;;;8.47;1.60;;;14.30;99.90;;;;;;5043236;28;20199;-50
2021/05/21 12:53:04;;;;;;;6.43;1.60;;;14.50;99.90;;;;;;5040987;28;20194;-50
2021/05/21 12:55:32;;;;;;;9.20;1.77;;;14.90;99.90;;;;;;5047815;28;20209;-49
2021/05/21 12:58:00;;;;;;;6.03;1.67;;;15.10;99.90;;;;;;5046003;28;20277;-50
2021/05/21 13:00:27;;;;;;;5.90;1.40;;;14.90;86.70;;;;;;5049933;28;20257;-50